sensor_id;sensor_type;location;lat;lon;timestamp;temperature;humidity
6810;DHT22;3443;48.812;9.112;2024-01-30T00:01:10;2.30;99.90
6810;DHT22;3443;48.812;9.112;2024-01-30T00:03:36;2.30;99.90
6810;DHT22;3443;48.812;9.112;2024-01-30T00:06:03;2.30;99.90
6810;DHT22;3443;48.812;9.112;2024-01-30T00:08:29;2.30;99.90
6810;DHT22;3443;48.812;9.112;2024-01-30T00:10:54;2.30;99.90
6810;DHT22;3443;48.812;9.112;2024-01-30T00:13:20;2.30;99.90
6810;DHT22;3443;48.812;9.112;2024-01-30T00:15:46;2.30;99.90
6810;DHT22;3443;48.812;9.112;2024-01-30T00:18:11;2.30;99.90
6810;DHT22;3443;48.812;9.112;2024-01-30T00:20:37;2.30;99.90
6810;DHT22;3443;48.812;9.112;2024-01-30T00:23:03;2.30;99.90
6810;DHT22;3443;48.812;9.112;2024-01-30T00:25:29;2.30;99.90
6810;DHT22;3443;48.812;9.112;2024-01-30T00:27:54;2.30;99.90
6810;DHT22;3443;48.812;9.112;2024-01-30T00:30:20;2.30;99.90
6810;DHT22;3443;48.812;9.112;2024-01-30T00:32:46;2.30;99.90
6810;DHT22;3443;48.812;9.112;2024-01-30T00:35:11;2.30;99.90
6810;DHT22;3443;48.812;9.112;2024-01-30T00:37:37;2.30;99.90
6810;DHT22;3443;48.812;9.112;2024-01-30T00:40:03;2.20;99.90
6810;DHT22;3443;48.812;9.112;2024-01-30T00:42:29;2.30;99.90
6810;DHT22;3443;48.812;9.112;2024-01-30T00:44:54;2.30;99.90
6810;DHT22;3443;48.812;9.112;2024-01-30T00:47:20;2.20;99.90
6810;DHT22;3443;48.812;9.112;2024-01-30T00:49:46;2.20;99.90
6810;DHT22;3443;48.812;9.112;2024-01-30T00:52:11;2.20;99.90
6810;DHT22;3443;48.812;9.112;2024-01-30T00:54:37;2.30;99.90
6810;DHT22;3443;48.812;9.112;2024-01-30T00:57:03;2.20;99.90
6810;DHT22;3443;48.812;9.112;2024-01-30T00:59:28;2.20;99.90
6810;DHT22;3443;48.812;9.112;2024-01-30T01:01:54;2.20;99.90
6810;DHT22;3443;48.812;9.112;2024-01-30T01:04:20;2.20;99.90
6810;DHT22;3443;48.812;9.112;2024-01-30T01:06:47;2.20;99.90
6810;DHT22;3443;48.812;9.112;2024-01-30T01:09:12;2.20;99.90
6810;DHT22;3443;48.812;9.112;2024-01-30T01:11:38;2.20;99.90
6810;DHT22;3443;48.812;9.112;2024-01-30T01:14:04;2.20;99.90
6810;DHT22;3443;48.812;9.112;2024-01-30T01:16:30;2.20;99.90
6810;DHT22;3443;48.812;9.112;2024-01-30T01:18:56;2.20;99.90
6810;DHT22;3443;48.812;9.112;2024-01-30T01:21:21;2.20;99.90
6810;DHT22;3443;48.812;9.112;2024-01-30T01:23:47;2.20;99.90
6810;DHT22;3443;48.812;9.112;2024-01-30T01:26:12;2.20;99.90
6810;DHT22;3443;48.812;9.112;2024-01-30T01:28:40;2.20;99.90
6810;DHT22;3443;48.812;9.112;2024-01-30T01:31:06;2.20;99.90
6810;DHT22;3443;48.812;9.112;2024-01-30T01:33:32;2.20;99.90
6810;DHT22;3443;48.812;9.112;2024-01-30T01:35:59;2.20;99.90
6810;DHT22;3443;48.812;9.112;2024-01-30T01:38:25;2.20;99.90
6810;DHT22;3443;48.812;9.112;2024-01-30T01:40:50;2.10;99.90
6810;DHT22;3443;48.812;9.112;2024-01-30T01:43:16;2.10;99.90
6810;DHT22;3443;48.812;9.112;2024-01-30T01:45:42;2.10;99.90
6810;DHT22;3443;48.812;9.112;2024-01-30T01:48:08;2.10;99.90
6810;DHT22;3443;48.812;9.112;2024-01-30T01:50:35;2.00;99.90
6810;DHT22;3443;48.812;9.112;2024-01-30T01:53:01;2.00;99.90
6810;DHT22;3443;48.812;9.112;2024-01-30T01:55:29;2.10;99.90
6810;DHT22;3443;48.812;9.112;2024-01-30T01:57:55;2.00;99.90
6810;DHT22;3443;48.812;9.112;2024-01-30T02:00:21;1.90;99.90
6810;DHT22;3443;48.812;9.112;2024-01-30T02:02:47;2.00;99.90
6810;DHT22;3443;48.812;9.112;2024-01-30T02:05:14;1.90;99.90
6810;DHT22;3443;48.812;9.112;2024-01-30T02:07:41;1.90;99.90
6810;DHT22;3443;48.812;9.112;2024-01-30T02:10:08;1.90;99.90
6810;DHT22;3443;48.812;9.112;2024-01-30T02:12:34;1.90;99.90
6810;DHT22;3443;48.812;9.112;2024-01-30T02:15:00;1.90;99.90
6810;DHT22;3443;48.812;9.112;2024-01-30T02:17:25;1.90;99.90
6810;DHT22;3443;48.812;9.112;2024-01-30T02:19:51;1.80;99.90
6810;DHT22;3443;48.812;9.112;2024-01-30T02:22:18;1.90;99.90
6810;DHT22;3443;48.812;9.112;2024-01-30T02:24:44;1.80;99.90
6810;DHT22;3443;48.812;9.112;2024-01-30T02:27:10;1.80;99.90
6810;DHT22;3443;48.812;9.112;2024-01-30T02:29:36;1.80;99.90
6810;DHT22;3443;48.812;9.112;2024-01-30T02:32:01;1.80;99.90
6810;DHT22;3443;48.812;9.112;2024-01-30T02:34:27;1.80;99.90
6810;DHT22;3443;48.812;9.112;2024-01-30T02:36:52;1.70;99.90
6810;DHT22;3443;48.812;9.112;2024-01-30T02:39:18;1.70;99.90
6810;DHT22;3443;48.812;9.112;2024-01-30T02:41:43;1.80;99.90
6810;DHT22;3443;48.812;9.112;2024-01-30T02:44:09;1.80;99.90
6810;DHT22;3443;48.812;9.112;2024-01-30T02:46:35;1.80;99.90
6810;DHT22;3443;48.812;9.112;2024-01-30T02:49:00;1.70;99.90
6810;DHT22;3443;48.812;9.112;2024-01-30T02:51:26;1.60;99.90
6810;DHT22;3443;48.812;9.112;2024-01-30T02:53:51;1.60;99.90
6810;DHT22;3443;48.812;9.112;2024-01-30T02:56:17;1.60;99.90
6810;DHT22;3443;48.812;9.112;2024-01-30T02:58:43;1.50;99.90
6810;DHT22;3443;48.812;9.112;2024-01-30T03:01:08;1.60;99.90
6810;DHT22;3443;48.812;9.112;2024-01-30T03:03:34;1.50;99.90
6810;DHT22;3443;48.812;9.112;2024-01-30T03:06:01;1.50;99.90
6810;DHT22;3443;48.812;9.112;2024-01-30T03:08:27;1.50;99.90
6810;DHT22;3443;48.812;9.112;2024-01-30T03:10:53;1.50;99.90
6810;DHT22;3443;48.812;9.112;2024-01-30T03:13:18;1.40;99.90
6810;DHT22;3443;48.812;9.112;2024-01-30T03:15:44;1.40;99.90
6810;DHT22;3443;48.812;9.112;2024-01-30T03:18:10;1.40;99.90
6810;DHT22;3443;48.812;9.112;2024-01-30T03:20:35;1.40;99.90
6810;DHT22;3443;48.812;9.112;2024-01-30T03:23:01;1.40;99.90
6810;DHT22;3443;48.812;9.112;2024-01-30T03:25:26;1.30;99.90
6810;DHT22;3443;48.812;9.112;2024-01-30T03:27:52;1.30;99.90
6810;DHT22;3443;48.812;9.112;2024-01-30T03:30:17;1.30;99.90
6810;DHT22;3443;48.812;9.112;2024-01-30T03:32:43;1.30;99.90
6810;DHT22;3443;48.812;9.112;2024-01-30T03:35:09;1.30;99.90
6810;DHT22;3443;48.812;9.112;2024-01-30T03:37:35;1.30;99.90
6810;DHT22;3443;48.812;9.112;2024-01-30T03:40:02;1.30;99.90
6810;DHT22;3443;48.812;9.112;2024-01-30T03:42:27;1.30;99.90
6810;DHT22;3443;48.812;9.112;2024-01-30T03:44:53;1.30;99.90
6810;DHT22;3443;48.812;9.112;2024-01-30T03:47:20;1.20;99.90
6810;DHT22;3443;48.812;9.112;2024-01-30T03:49:46;1.30;99.90
6810;DHT22;3443;48.812;9.112;2024-01-30T03:52:12;1.30;99.90
6810;DHT22;3443;48.812;9.112;2024-01-30T03:54:37;1.30;99.90
6810;DHT22;3443;48.812;9.112;2024-01-30T03:57:03;1.30;99.90
6810;DHT22;3443;48.812;9.112;2024-01-30T03:59:29;1.30;99.90
6810;DHT22;3443;48.812;9.112;2024-01-30T04:01:54;1.30;99.90
6810;DHT22;3443;48.812;9.112;2024-01-30T04:04:20;1.30;99.90
6810;DHT22;3443;48.812;9.112;2024-01-30T04:06:46;1.30;99.90
6810;DHT22;3443;48.812;9.112;2024-01-30T04:09:15;1.30;99.90
6810;DHT22;3443;48.812;9.112;2024-01-30T04:11:41;1.30;99.90
6810;DHT22;3443;48.812;9.112;2024-01-30T04:14:07;1.30;99.90
6810;DHT22;3443;48.812;9.112;2024-01-30T04:16:33;1.30;99.90
6810;DHT22;3443;48.812;9.112;2024-01-30T04:18:58;1.30;99.90
6810;DHT22;3443;48.812;9.112;2024-01-30T04:21:24;1.30;99.90
6810;DHT22;3443;48.812;9.112;2024-01-30T04:23:51;1.20;99.90
6810;DHT22;3443;48.812;9.112;2024-01-30T04:26:16;1.20;99.90
6810;DHT22;3443;48.812;9.112;2024-01-30T04:28:43;1.20;99.90
6810;DHT22;3443;48.812;9.112;2024-01-30T04:31:09;1.10;99.90
6810;DHT22;3443;48.812;9.112;2024-01-30T04:33:35;1.20;99.90
6810;DHT22;3443;48.812;9.112;2024-01-30T04:36:00;1.20;99.90
6810;DHT22;3443;48.812;9.112;2024-01-30T04:38:26;1.10;99.90
6810;DHT22;3443;48.812;9.112;2024-01-30T04:40:51;1.10;99.90
6810;DHT22;3443;48.812;9.112;2024-01-30T04:43:17;1.10;99.90
6810;DHT22;3443;48.812;9.112;2024-01-30T04:45:44;1.10;99.90
6810;DHT22;3443;48.812;9.112;2024-01-30T04:48:09;1.20;99.90
6810;DHT22;3443;48.812;9.112;2024-01-30T04:50:35;1.10;99.90
6810;DHT22;3443;48.812;9.112;2024-01-30T04:53:01;1.10;99.90
6810;DHT22;3443;48.812;9.112;2024-01-30T04:55:27;1.10;99.90
6810;DHT22;3443;48.812;9.112;2024-01-30T04:57:52;1.10;99.90
6810;DHT22;3443;48.812;9.112;2024-01-30T05:00:18;1.10;99.90
6810;DHT22;3443;48.812;9.112;2024-01-30T05:02:44;1.00;99.90
6810;DHT22;3443;48.812;9.112;2024-01-30T05:05:09;1.00;99.90
6810;DHT22;3443;48.812;9.112;2024-01-30T05:07:37;1.00;99.90
6810;DHT22;3443;48.812;9.112;2024-01-30T05:10:02;1.00;99.90
6810;DHT22;3443;48.812;9.112;2024-01-30T05:12:28;1.00;99.90
6810;DHT22;3443;48.812;9.112;2024-01-30T05:14:54;1.00;99.90
6810;DHT22;3443;48.812;9.112;2024-01-30T05:17:20;1.00;99.90
6810;DHT22;3443;48.812;9.112;2024-01-30T05:19:45;1.00;99.90
6810;DHT22;3443;48.812;9.112;2024-01-30T05:22:11;1.00;99.90
6810;DHT22;3443;48.812;9.112;2024-01-30T05:24:41;1.00;99.90
6810;DHT22;3443;48.812;9.112;2024-01-30T05:27:07;1.00;99.90
6810;DHT22;3443;48.812;9.112;2024-01-30T05:29:33;0.90;99.90
6810;DHT22;3443;48.812;9.112;2024-01-30T05:31:58;0.90;99.90
6810;DHT22;3443;48.812;9.112;2024-01-30T05:34:24;1.00;99.90
6810;DHT22;3443;48.812;9.112;2024-01-30T05:36:49;1.00;99.90
6810;DHT22;3443;48.812;9.112;2024-01-30T05:39:15;1.00;99.90
6810;DHT22;3443;48.812;9.112;2024-01-30T05:41:41;0.90;99.90
6810;DHT22;3443;48.812;9.112;2024-01-30T05:44:06;0.90;99.90
6810;DHT22;3443;48.812;9.112;2024-01-30T05:46:32;0.90;99.90
6810;DHT22;3443;48.812;9.112;2024-01-30T05:48:58;0.90;99.90
6810;DHT22;3443;48.812;9.112;2024-01-30T05:51:24;0.90;99.90
6810;DHT22;3443;48.812;9.112;2024-01-30T05:53:49;0.90;99.90
6810;DHT22;3443;48.812;9.112;2024-01-30T05:56:15;0.90;99.90
6810;DHT22;3443;48.812;9.112;2024-01-30T05:58:41;0.90;99.90
6810;DHT22;3443;48.812;9.112;2024-01-30T06:01:08;0.90;99.90
6810;DHT22;3443;48.812;9.112;2024-01-30T06:03:34;0.90;99.90
6810;DHT22;3443;48.812;9.112;2024-01-30T06:06:00;0.80;99.90
6810;DHT22;3443;48.812;9.112;2024-01-30T06:08:25;0.90;99.90
6810;DHT22;3443;48.812;9.112;2024-01-30T06:10:51;0.90;99.90
6810;DHT22;3443;48.812;9.112;2024-01-30T06:13:16;0.80;99.90
6810;DHT22;3443;48.812;9.112;2024-01-30T06:15:42;0.80;99.90
6810;DHT22;3443;48.812;9.112;2024-01-30T06:18:08;0.80;99.90
6810;DHT22;3443;48.812;9.112;2024-01-30T06:20:34;0.80;99.90
6810;DHT22;3443;48.812;9.112;2024-01-30T06:22:59;0.80;99.90
6810;DHT22;3443;48.812;9.112;2024-01-30T06:25:25;0.80;99.90
6810;DHT22;3443;48.812;9.112;2024-01-30T06:27:51;0.80;99.90
6810;DHT22;3443;48.812;9.112;2024-01-30T06:30:18;0.80;99.90
6810;DHT22;3443;48.812;9.112;2024-01-30T06:32:43;0.80;99.90
6810;DHT22;3443;48.812;9.112;2024-01-30T06:35:09;0.80;99.90
6810;DHT22;3443;48.812;9.112;2024-01-30T06:37:36;0.80;99.90
6810;DHT22;3443;48.812;9.112;2024-01-30T06:40:01;0.80;99.90
6810;DHT22;3443;48.812;9.112;2024-01-30T06:42:27;0.80;99.90
6810;DHT22;3443;48.812;9.112;2024-01-30T06:44:53;0.80;99.90
6810;DHT22;3443;48.812;9.112;2024-01-30T06:47:19;0.80;99.90
6810;DHT22;3443;48.812;9.112;2024-01-30T06:49:44;0.80;99.90
6810;DHT22;3443;48.812;9.112;2024-01-30T06:52:10;0.80;99.90
6810;DHT22;3443;48.812;9.112;2024-01-30T06:54:36;0.70;99.90
6810;DHT22;3443;48.812;9.112;2024-01-30T06:57:02;0.70;99.90
6810;DHT22;3443;48.812;9.112;2024-01-30T06:59:28;0.70;99.90
6810;DHT22;3443;48.812;9.112;2024-01-30T07:01:53;0.70;99.90
6810;DHT22;3443;48.812;9.112;2024-01-30T07:04:19;0.70;99.90
6810;DHT22;3443;48.812;9.112;2024-01-30T07:06:45;0.80;99.90
6810;DHT22;3443;48.812;9.112;2024-01-30T07:09:10;0.80;99.90
6810;DHT22;3443;48.812;9.112;2024-01-30T07:11:36;0.70;99.90
6810;DHT22;3443;48.812;9.112;2024-01-30T07:14:01;0.80;99.90
6810;DHT22;3443;48.812;9.112;2024-01-30T07:16:30;0.80;99.90
6810;DHT22;3443;48.812;9.112;2024-01-30T07:18:55;0.80;99.90
6810;DHT22;3443;48.812;9.112;2024-01-30T07:21:22;0.80;99.90
6810;DHT22;3443;48.812;9.112;2024-01-30T07:23:53;0.90;99.90
6810;DHT22;3443;48.812;9.112;2024-01-30T07:26:19;0.90;99.90
6810;DHT22;3443;48.812;9.112;2024-01-30T07:28:44;1.00;99.90
6810;DHT22;3443;48.812;9.112;2024-01-30T07:31:10;1.00;99.90
6810;DHT22;3443;48.812;9.112;2024-01-30T07:33:35;1.00;99.90
6810;DHT22;3443;48.812;9.112;2024-01-30T07:36:01;1.00;99.90
6810;DHT22;3443;48.812;9.112;2024-01-30T07:38:27;1.00;99.90
6810;DHT22;3443;48.812;9.112;2024-01-30T07:40:52;1.10;99.90
6810;DHT22;3443;48.812;9.112;2024-01-30T07:43:18;1.10;99.90
6810;DHT22;3443;48.812;9.112;2024-01-30T07:45:45;1.20;99.90
6810;DHT22;3443;48.812;9.112;2024-01-30T07:48:11;1.20;99.90
6810;DHT22;3443;48.812;9.112;2024-01-30T07:50:36;1.30;99.90
6810;DHT22;3443;48.812;9.112;2024-01-30T07:53:02;1.30;99.90
6810;DHT22;3443;48.812;9.112;2024-01-30T07:55:28;1.40;99.90
6810;DHT22;3443;48.812;9.112;2024-01-30T07:57:55;1.40;99.90
6810;DHT22;3443;48.812;9.112;2024-01-30T08:00:21;1.50;99.90
6810;DHT22;3443;48.812;9.112;2024-01-30T08:02:47;1.60;99.90
6810;DHT22;3443;48.812;9.112;2024-01-30T08:05:13;1.70;99.90
6810;DHT22;3443;48.812;9.112;2024-01-30T08:07:41;1.90;99.90
6810;DHT22;3443;48.812;9.112;2024-01-30T08:10:08;2.00;99.90
6810;DHT22;3443;48.812;9.112;2024-01-30T08:12:33;2.10;99.90
6810;DHT22;3443;48.812;9.112;2024-01-30T08:14:59;2.20;99.90
6810;DHT22;3443;48.812;9.112;2024-01-30T08:17:24;2.30;99.90
6810;DHT22;3443;48.812;9.112;2024-01-30T08:19:50;2.50;99.90
6810;DHT22;3443;48.812;9.112;2024-01-30T08:22:15;2.60;99.90
6810;DHT22;3443;48.812;9.112;2024-01-30T08:24:41;2.80;99.90
6810;DHT22;3443;48.812;9.112;2024-01-30T08:27:07;2.90;99.90
6810;DHT22;3443;48.812;9.112;2024-01-30T08:29:35;3.10;99.90
6810;DHT22;3443;48.812;9.112;2024-01-30T08:32:01;3.20;99.90
6810;DHT22;3443;48.812;9.112;2024-01-30T08:34:27;3.40;99.90
6810;DHT22;3443;48.812;9.112;2024-01-30T08:36:52;3.50;99.90
6810;DHT22;3443;48.812;9.112;2024-01-30T08:39:18;3.60;99.90
6810;DHT22;3443;48.812;9.112;2024-01-30T08:41:44;3.70;99.90
6810;DHT22;3443;48.812;9.112;2024-01-30T08:44:10;3.90;99.90
6810;DHT22;3443;48.812;9.112;2024-01-30T08:46:36;4.00;99.90
6810;DHT22;3443;48.812;9.112;2024-01-30T08:49:02;4.00;99.90
6810;DHT22;3443;48.812;9.112;2024-01-30T08:51:29;4.10;99.90
6810;DHT22;3443;48.812;9.112;2024-01-30T08:53:55;4.10;99.90
6810;DHT22;3443;48.812;9.112;2024-01-30T08:56:21;4.10;99.90
6810;DHT22;3443;48.812;9.112;2024-01-30T08:58:46;4.20;99.90
6810;DHT22;3443;48.812;9.112;2024-01-30T09:01:12;4.20;99.90
6810;DHT22;3443;48.812;9.112;2024-01-30T09:03:37;4.30;99.90
6810;DHT22;3443;48.812;9.112;2024-01-30T09:06:11;4.30;99.90
6810;DHT22;3443;48.812;9.112;2024-01-30T09:08:37;4.40;99.90
6810;DHT22;3443;48.812;9.112;2024-01-30T09:11:09;4.50;99.90
6810;DHT22;3443;48.812;9.112;2024-01-30T09:13:35;4.50;99.90
6810;DHT22;3443;48.812;9.112;2024-01-30T09:16:00;4.60;99.90
6810;DHT22;3443;48.812;9.112;2024-01-30T09:18:26;4.60;99.90
6810;DHT22;3443;48.812;9.112;2024-01-30T09:20:51;4.70;99.90
6810;DHT22;3443;48.812;9.112;2024-01-30T09:23:17;4.80;99.90
6810;DHT22;3443;48.812;9.112;2024-01-30T09:25:45;4.90;99.90
6810;DHT22;3443;48.812;9.112;2024-01-30T09:28:10;5.00;99.90
6810;DHT22;3443;48.812;9.112;2024-01-30T09:30:36;5.20;99.90
6810;DHT22;3443;48.812;9.112;2024-01-30T09:33:02;5.40;99.90
6810;DHT22;3443;48.812;9.112;2024-01-30T09:35:27;5.60;99.90
6810;DHT22;3443;48.812;9.112;2024-01-30T09:37:54;5.80;99.90
6810;DHT22;3443;48.812;9.112;2024-01-30T09:40:19;5.90;99.90
6810;DHT22;3443;48.812;9.112;2024-01-30T09:42:47;6.10;99.90
6810;DHT22;3443;48.812;9.112;2024-01-30T09:45:17;6.10;99.90
6810;DHT22;3443;48.812;9.112;2024-01-30T09:47:44;6.20;99.90
6810;DHT22;3443;48.812;9.112;2024-01-30T09:50:11;6.20;99.90
6810;DHT22;3443;48.812;9.112;2024-01-30T09:52:38;6.20;99.90
6810;DHT22;3443;48.812;9.112;2024-01-30T09:55:04;6.30;99.90
6810;DHT22;3443;48.812;9.112;2024-01-30T09:57:31;6.30;99.90
6810;DHT22;3443;48.812;9.112;2024-01-30T09:59:56;6.50;99.90
6810;DHT22;3443;48.812;9.112;2024-01-30T10:02:22;6.60;99.90
6810;DHT22;3443;48.812;9.112;2024-01-30T10:04:49;6.80;99.90
6810;DHT22;3443;48.812;9.112;2024-01-30T10:07:16;6.80;99.90
6810;DHT22;3443;48.812;9.112;2024-01-30T10:09:41;6.80;99.90
6810;DHT22;3443;48.812;9.112;2024-01-30T10:12:08;6.90;99.90
6810;DHT22;3443;48.812;9.112;2024-01-30T10:14:37;6.90;99.90
6810;DHT22;3443;48.812;9.112;2024-01-30T10:17:03;7.00;99.90
6810;DHT22;3443;48.812;9.112;2024-01-30T10:19:29;7.10;99.90
6810;DHT22;3443;48.812;9.112;2024-01-30T10:21:55;7.10;99.90
6810;DHT22;3443;48.812;9.112;2024-01-30T10:24:24;7.20;99.90
6810;DHT22;3443;48.812;9.112;2024-01-30T10:26:50;7.30;99.90
6810;DHT22;3443;48.812;9.112;2024-01-30T10:29:16;7.30;99.90
6810;DHT22;3443;48.812;9.112;2024-01-30T10:31:42;7.40;99.90
6810;DHT22;3443;48.812;9.112;2024-01-30T10:34:07;7.40;99.90
6810;DHT22;3443;48.812;9.112;2024-01-30T10:36:46;7.50;99.90
6810;DHT22;3443;48.812;9.112;2024-01-30T10:39:16;7.60;99.90
6810;DHT22;3443;48.812;9.112;2024-01-30T10:41:44;7.70;99.90
6810;DHT22;3443;48.812;9.112;2024-01-30T10:44:10;7.70;99.90
6810;DHT22;3443;48.812;9.112;2024-01-30T10:46:38;7.70;99.90
6810;DHT22;3443;48.812;9.112;2024-01-30T10:49:04;7.80;99.90
6810;DHT22;3443;48.812;9.112;2024-01-30T10:51:32;7.90;99.90
6810;DHT22;3443;48.812;9.112;2024-01-30T10:53:58;8.00;99.90
6810;DHT22;3443;48.812;9.112;2024-01-30T10:56:24;8.00;99.90
6810;DHT22;3443;48.812;9.112;2024-01-30T10:58:50;8.10;99.90
6810;DHT22;3443;48.812;9.112;2024-01-30T11:01:21;8.20;99.90
6810;DHT22;3443;48.812;9.112;2024-01-30T11:03:53;8.30;99.90
6810;DHT22;3443;48.812;9.112;2024-01-30T11:06:22;8.40;99.90
6810;DHT22;3443;48.812;9.112;2024-01-30T11:09:04;8.40;99.90
6810;DHT22;3443;48.812;9.112;2024-01-30T11:12:06;8.50;99.90
6810;DHT22;3443;48.812;9.112;2024-01-30T11:14:37;8.60;99.90
6810;DHT22;3443;48.812;9.112;2024-01-30T11:17:05;8.70;99.90
6810;DHT22;3443;48.812;9.112;2024-01-30T11:19:31;8.80;99.90
6810;DHT22;3443;48.812;9.112;2024-01-30T11:21:57;8.90;99.90
6810;DHT22;3443;48.812;9.112;2024-01-30T11:24:23;9.00;99.90
6810;DHT22;3443;48.812;9.112;2024-01-30T11:26:54;9.30;99.90
6810;DHT22;3443;48.812;9.112;2024-01-30T11:29:27;9.10;99.90
6810;DHT22;3443;48.812;9.112;2024-01-30T11:31:57;9.10;99.90
6810;DHT22;3443;48.812;9.112;2024-01-30T11:34:23;9.20;99.90
6810;DHT22;3443;48.812;9.112;2024-01-30T11:36:52;9.20;99.90
6810;DHT22;3443;48.812;9.112;2024-01-30T11:39:25;9.30;99.90
6810;DHT22;3443;48.812;9.112;2024-01-30T11:41:51;9.30;99.90
6810;DHT22;3443;48.812;9.112;2024-01-30T11:44:18;9.40;99.90
6810;DHT22;3443;48.812;9.112;2024-01-30T11:46:46;9.50;99.90
6810;DHT22;3443;48.812;9.112;2024-01-30T11:49:12;9.50;99.90
6810;DHT22;3443;48.812;9.112;2024-01-30T11:51:37;9.60;99.90
6810;DHT22;3443;48.812;9.112;2024-01-30T11:54:03;9.60;99.90
6810;DHT22;3443;48.812;9.112;2024-01-30T11:56:29;9.70;99.90
6810;DHT22;3443;48.812;9.112;2024-01-30T11:58:54;9.80;99.90
6810;DHT22;3443;48.812;9.112;2024-01-30T12:01:20;9.80;99.90
6810;DHT22;3443;48.812;9.112;2024-01-30T12:03:50;9.80;99.90
6810;DHT22;3443;48.812;9.112;2024-01-30T12:06:16;9.80;99.90
6810;DHT22;3443;48.812;9.112;2024-01-30T12:08:42;9.90;99.90
6810;DHT22;3443;48.812;9.112;2024-01-30T12:11:07;9.90;99.90
6810;DHT22;3443;48.812;9.112;2024-01-30T12:13:34;9.90;99.90
6810;DHT22;3443;48.812;9.112;2024-01-30T12:16:00;10.00;99.90
6810;DHT22;3443;48.812;9.112;2024-01-30T12:18:26;10.00;99.90
6810;DHT22;3443;48.812;9.112;2024-01-30T12:20:59;10.00;99.90
6810;DHT22;3443;48.812;9.112;2024-01-30T12:23:26;10.00;99.90
6810;DHT22;3443;48.812;9.112;2024-01-30T12:25:52;10.20;99.90
6810;DHT22;3443;48.812;9.112;2024-01-30T12:28:22;10.10;99.90
6810;DHT22;3443;48.812;9.112;2024-01-30T12:30:48;10.10;99.90
6810;DHT22;3443;48.812;9.112;2024-01-30T12:33:17;10.20;99.90
6810;DHT22;3443;48.812;9.112;2024-01-30T12:35:47;10.20;99.90
6810;DHT22;3443;48.812;9.112;2024-01-30T12:38:14;10.30;99.90
6810;DHT22;3443;48.812;9.112;2024-01-30T12:40:39;10.40;99.90
6810;DHT22;3443;48.812;9.112;2024-01-30T12:43:05;10.40;99.90
6810;DHT22;3443;48.812;9.112;2024-01-30T12:45:31;10.50;99.90
6810;DHT22;3443;48.812;9.112;2024-01-30T12:47:56;10.60;99.90
6810;DHT22;3443;48.812;9.112;2024-01-30T12:50:23;10.60;99.90
6810;DHT22;3443;48.812;9.112;2024-01-30T12:52:49;10.70;99.90
6810;DHT22;3443;48.812;9.112;2024-01-30T12:55:15;10.80;99.90
6810;DHT22;3443;48.812;9.112;2024-01-30T12:57:40;10.90;99.90
6810;DHT22;3443;48.812;9.112;2024-01-30T13:00:07;10.90;99.90
6810;DHT22;3443;48.812;9.112;2024-01-30T13:02:36;10.90;99.90
6810;DHT22;3443;48.812;9.112;2024-01-30T13:05:03;11.00;99.90
6810;DHT22;3443;48.812;9.112;2024-01-30T13:07:29;11.10;99.90
6810;DHT22;3443;48.812;9.112;2024-01-30T13:09:56;11.10;99.90
6810;DHT22;3443;48.812;9.112;2024-01-30T13:12:27;11.20;99.90
6810;DHT22;3443;48.812;9.112;2024-01-30T13:14:53;11.40;99.90
6810;DHT22;3443;48.812;9.112;2024-01-30T13:17:19;11.40;99.90
6810;DHT22;3443;48.812;9.112;2024-01-30T13:19:44;11.60;99.90
6810;DHT22;3443;48.812;9.112;2024-01-30T13:22:10;11.60;99.90
6810;DHT22;3443;48.812;9.112;2024-01-30T13:24:35;11.50;99.90
6810;DHT22;3443;48.812;9.112;2024-01-30T13:27:01;11.40;99.90
6810;DHT22;3443;48.812;9.112;2024-01-30T13:29:27;11.40;99.90
6810;DHT22;3443;48.812;9.112;2024-01-30T13:31:53;11.30;99.90
6810;DHT22;3443;48.812;9.112;2024-01-30T13:34:18;11.30;99.90
6810;DHT22;3443;48.812;9.112;2024-01-30T13:36:46;11.30;99.90
6810;DHT22;3443;48.812;9.112;2024-01-30T13:39:14;11.40;99.90
6810;DHT22;3443;48.812;9.112;2024-01-30T13:41:41;11.40;99.90
6810;DHT22;3443;48.812;9.112;2024-01-30T13:44:06;11.40;99.90
6810;DHT22;3443;48.812;9.112;2024-01-30T13:46:32;11.50;99.90
6810;DHT22;3443;48.812;9.112;2024-01-30T13:48:58;11.50;99.90
6810;DHT22;3443;48.812;9.112;2024-01-30T13:51:23;11.50;99.90
6810;DHT22;3443;48.812;9.112;2024-01-30T13:53:49;11.50;99.90
6810;DHT22;3443;48.812;9.112;2024-01-30T13:56:16;11.50;99.90
6810;DHT22;3443;48.812;9.112;2024-01-30T13:58:41;11.40;99.90
6810;DHT22;3443;48.812;9.112;2024-01-30T14:01:07;11.40;99.90
6810;DHT22;3443;48.812;9.112;2024-01-30T14:03:32;11.30;99.90
6810;DHT22;3443;48.812;9.112;2024-01-30T14:05:58;11.30;99.90
6810;DHT22;3443;48.812;9.112;2024-01-30T14:08:24;11.20;99.90
6810;DHT22;3443;48.812;9.112;2024-01-30T14:10:53;11.20;99.90
6810;DHT22;3443;48.812;9.112;2024-01-30T14:13:19;11.20;99.90
6810;DHT22;3443;48.812;9.112;2024-01-30T14:15:45;11.20;99.90
6810;DHT22;3443;48.812;9.112;2024-01-30T14:18:11;11.20;99.90
6810;DHT22;3443;48.812;9.112;2024-01-30T14:20:36;11.10;99.90
6810;DHT22;3443;48.812;9.112;2024-01-30T14:23:02;11.00;99.90
6810;DHT22;3443;48.812;9.112;2024-01-30T14:25:28;11.00;99.90
6810;DHT22;3443;48.812;9.112;2024-01-30T14:27:53;11.00;99.90
6810;DHT22;3443;48.812;9.112;2024-01-30T14:30:19;11.00;99.90
6810;DHT22;3443;48.812;9.112;2024-01-30T14:32:45;10.90;99.90
6810;DHT22;3443;48.812;9.112;2024-01-30T14:35:10;10.90;99.90
6810;DHT22;3443;48.812;9.112;2024-01-30T14:37:37;10.80;99.90
6810;DHT22;3443;48.812;9.112;2024-01-30T14:40:03;10.80;99.90
6810;DHT22;3443;48.812;9.112;2024-01-30T14:42:29;10.80;99.90
6810;DHT22;3443;48.812;9.112;2024-01-30T14:44:57;10.80;99.90
6810;DHT22;3443;48.812;9.112;2024-01-30T14:47:22;10.80;99.90
6810;DHT22;3443;48.812;9.112;2024-01-30T14:49:48;10.70;99.90
6810;DHT22;3443;48.812;9.112;2024-01-30T14:52:14;10.70;99.90
6810;DHT22;3443;48.812;9.112;2024-01-30T14:54:40;10.60;99.90
6810;DHT22;3443;48.812;9.112;2024-01-30T14:57:06;10.50;99.90
6810;DHT22;3443;48.812;9.112;2024-01-30T14:59:31;10.40;99.90
6810;DHT22;3443;48.812;9.112;2024-01-30T15:01:57;10.40;99.90
6810;DHT22;3443;48.812;9.112;2024-01-30T15:04:22;10.30;99.90
6810;DHT22;3443;48.812;9.112;2024-01-30T15:06:49;10.20;99.90
6810;DHT22;3443;48.812;9.112;2024-01-30T15:09:15;10.20;99.90
6810;DHT22;3443;48.812;9.112;2024-01-30T15:11:43;10.10;99.90
6810;DHT22;3443;48.812;9.112;2024-01-30T15:14:09;10.00;99.90
6810;DHT22;3443;48.812;9.112;2024-01-30T15:16:35;10.00;99.90
6810;DHT22;3443;48.812;9.112;2024-01-30T15:19:01;10.00;99.90
6810;DHT22;3443;48.812;9.112;2024-01-30T15:21:27;9.90;99.90
6810;DHT22;3443;48.812;9.112;2024-01-30T15:23:54;9.80;99.90
6810;DHT22;3443;48.812;9.112;2024-01-30T15:26:20;9.70;99.90
6810;DHT22;3443;48.812;9.112;2024-01-30T15:28:46;9.60;99.90
6810;DHT22;3443;48.812;9.112;2024-01-30T15:31:11;9.50;99.90
6810;DHT22;3443;48.812;9.112;2024-01-30T15:33:37;9.40;99.90
6810;DHT22;3443;48.812;9.112;2024-01-30T15:36:02;9.30;99.90
6810;DHT22;3443;48.812;9.112;2024-01-30T15:38:28;9.30;99.90
6810;DHT22;3443;48.812;9.112;2024-01-30T15:40:55;9.20;99.90
6810;DHT22;3443;48.812;9.112;2024-01-30T15:43:20;9.20;99.90
6810;DHT22;3443;48.812;9.112;2024-01-30T15:45:46;9.10;99.90
6810;DHT22;3443;48.812;9.112;2024-01-30T15:48:12;9.00;99.90
6810;DHT22;3443;48.812;9.112;2024-01-30T15:50:37;9.00;99.90
6810;DHT22;3443;48.812;9.112;2024-01-30T15:53:04;8.90;99.90
6810;DHT22;3443;48.812;9.112;2024-01-30T15:55:30;8.80;99.90
6810;DHT22;3443;48.812;9.112;2024-01-30T15:57:55;8.90;99.90
6810;DHT22;3443;48.812;9.112;2024-01-30T16:00:21;8.70;99.90
6810;DHT22;3443;48.812;9.112;2024-01-30T16:02:47;8.60;99.90
6810;DHT22;3443;48.812;9.112;2024-01-30T16:05:13;8.50;99.90
6810;DHT22;3443;48.812;9.112;2024-01-30T16:07:39;8.50;99.90